Time;durP1;ratioP1;P1;durP2;ratioP2;P2;SDS_P1;SDS_P2;PMS_P1;PMS_P2;Temp;Humidity;BMP_temperature;BMP_pressure;BME280_temperature;BME280_humidity;BME280_pressure;Samples;Min_cycle;Max_cycle;Signal;HPM_P1;HPM_P2
2022/08/24 00:02:22;;;;;;;23.80;16.42;;;19.40;99.90;;;;;;5058368;28;20115;-82
2022/08/24 00:04:49;;;;;;;29.25;18.17;;;19.50;99.90;;;;;;5058531;28;20383;-79
2022/08/24 00:07:15;;;;;;;23.13;15.95;;;19.50;99.90;;;;;;5076296;28;20383;-81
2022/08/24 00:09:41;;;;;;;23.70;15.32;;;19.50;99.90;;;;;;5077262;28;20024;-81
2022/08/24 00:12:09;;;;;;;22.25;15.00;;;19.50;99.90;;;;;;5081610;28;20126;-82
2022/08/24 00:14:35;;;;;;;23.05;15.30;;;19.40;99.90;;;;;;5083330;28;20032;-78
2022/08/24 00:17:01;;;;;;;31.10;16.63;;;19.50;99.90;;;;;;5058202;28;20028;-79
2022/08/24 00:19:28;;;;;;;31.23;15.82;;;19.40;99.90;;;;;;5078113;28;20024;-80
2022/08/24 00:21:53;;;;;;;26.77;16.33;;;19.40;99.90;;;;;;5096636;28;20379;-76
2022/08/24 00:24:19;;;;;;;27.83;16.75;;;19.40;99.90;;;;;;5096283;28;20028;-79
2022/08/24 00:26:52;;;;;;;24.40;16.58;;;19.40;99.90;;;;;;5096719;28;20020;-80
2022/08/24 00:29:20;;;;;;;26.70;15.75;;;19.40;99.90;;;;;;5075916;28;20028;-78
2022/08/24 00:31:47;;;;;;;24.65;15.18;;;19.40;99.90;;;;;;5076200;28;20099;-79
2022/08/24 00:34:13;;;;;;;25.88;14.85;;;19.40;99.90;;;;;;5075127;28;20067;-79
2022/08/24 00:36:41;;;;;;;21.90;14.90;;;19.40;99.90;;;;;;5057716;28;20471;-80
2022/08/24 00:39:08;;;;;;;22.13;14.82;;;19.40;99.90;;;;;;5075738;28;20090;-78
2022/08/24 00:41:38;;;;;;;21.95;14.48;;;19.40;99.90;;;;;;5075596;28;20036;-79
2022/08/24 00:44:05;;;;;;;23.17;14.95;;;19.40;99.90;;;;;;5075365;28;20028;-79
2022/08/24 00:46:52;;;;;;;24.75;14.27;;;19.40;99.90;;;;;;5075518;28;20040;-79
2022/08/24 00:49:41;;;;;;;23.00;14.75;;;19.40;99.90;;;;;;5075997;28;20467;-78
2022/08/24 00:52:47;;;;;;;22.85;14.15;;;19.40;99.90;;;;;;5075639;28;20031;-80
2022/08/24 00:55:18;;;;;;;20.75;13.88;;;19.40;99.90;;;;;;4974781;28;20074;-77
2022/08/24 00:57:50;;;;;;;18.98;13.80;;;19.40;99.90;;;;;;4974508;28;20043;-78
2022/08/24 01:00:21;;;;;;;21.55;14.65;;;19.40;99.90;;;;;;4958283;28;20031;-77
2022/08/24 01:02:50;;;;;;;24.10;14.35;;;19.40;99.90;;;;;;4958259;28;20058;-80
2022/08/24 01:05:16;;;;;;;21.63;14.25;;;19.30;99.90;;;;;;4957989;28;20042;-79
2022/08/24 01:07:42;;;;;;;25.90;15.65;;;19.30;99.90;;;;;;4974319;28;20030;-79
2022/08/24 01:10:12;;;;;;;24.13;15.35;;;19.30;99.90;;;;;;4958121;28;20046;-80
2022/08/24 01:12:44;;;;;;;26.48;16.25;;;19.30;99.90;;;;;;4974047;28;20070;-78
2022/08/24 01:15:10;;;;;;;24.90;17.10;;;19.30;99.90;;;;;;4974313;28;20035;-79
2022/08/24 01:20:22;;;;;;;29.35;18.33;;;19.30;99.90;;;;;;4974359;28;20074;-79
2022/08/24 01:23:09;;;;;;;33.40;18.17;;;19.30;99.90;;;;;;4973876;28;20039;-78
2022/08/24 01:25:37;;;;;;;29.17;18.85;;;19.30;99.90;;;;;;4974225;28;20042;-78
2022/08/24 01:28:07;;;;;;;30.23;18.50;;;19.30;99.90;;;;;;4974310;28;20097;-80
2022/08/24 01:30:34;;;;;;;27.95;18.08;;;19.30;99.90;;;;;;5020032;28;20093;-78
2022/08/24 01:33:02;;;;;;;30.05;18.92;;;19.30;99.90;;;;;;5074788;28;20041;-78
2022/08/24 01:35:30;;;;;;;29.80;19.23;;;19.30;99.90;;;;;;5056644;28;20055;-78
2022/08/24 01:37:59;;;;;;;30.73;18.13;;;19.30;99.90;;;;;;5056917;28;20172;-78
2022/08/24 01:40:35;;;;;;;25.65;18.15;;;19.30;99.90;;;;;;5074827;28;20028;-79
2022/08/24 01:43:04;;;;;;;29.40;19.00;;;19.40;99.90;;;;;;5056866;28;20024;-78
2022/08/24 01:45:30;;;;;;;26.95;16.17;;;19.40;99.90;;;;;;5074436;28;20032;-79
2022/08/24 01:47:57;;;;;;;29.90;16.30;;;19.40;99.90;;;;;;5074088;28;20028;-79
2022/08/24 01:50:23;;;;;;;25.70;16.67;;;19.50;99.90;;;;;;5074500;28;20073;-78
2022/08/24 01:52:51;;;;;;;30.23;16.40;;;19.40;99.90;;;;;;5074843;28;20043;-79
2022/08/24 01:55:18;;;;;;;24.90;15.45;;;19.50;99.90;;;;;;5056406;28;20025;-79
2022/08/24 01:57:44;;;;;;;26.42;15.15;;;19.40;99.90;;;;;;5056449;28;20032;-79
2022/08/24 02:00:13;;;;;;;22.33;14.98;;;19.40;99.90;;;;;;5056156;28;20031;-77
2022/08/24 02:02:41;;;;;;;22.90;14.43;;;19.50;99.90;;;;;;5073995;28;20174;-77
2022/08/24 02:05:08;;;;;;;22.42;14.88;;;19.50;99.90;;;;;;5056293;28;20455;-79
2022/08/24 02:07:34;;;;;;;24.25;15.18;;;19.50;99.90;;;;;;5073766;28;20024;-78
2022/08/24 02:10:00;;;;;;;26.20;15.05;;;19.50;99.90;;;;;;5074331;28;20455;-77
2022/08/24 02:12:26;;;;;;;26.88;15.27;;;19.50;99.90;;;;;;5056142;28;20027;-81
2022/08/24 02:14:52;;;;;;;24.77;15.40;;;19.50;99.90;;;;;;5073694;28;20029;-81
2022/08/24 02:17:18;;;;;;;27.02;15.45;;;19.50;99.90;;;;;;5073856;28;20421;-79
2022/08/24 02:19:45;;;;;;;28.42;16.48;;;19.50;99.90;;;;;;5055848;28;20036;-77
2022/08/24 02:22:11;;;;;;;27.67;16.73;;;19.50;99.90;;;;;;5073804;28;20021;-77
2022/08/24 02:24:37;;;;;;;27.05;16.70;;;19.40;99.90;;;;;;5056003;28;20119;-79
2022/08/24 02:27:04;;;;;;;27.83;17.13;;;19.50;99.90;;;;;;5074032;28;20028;-77
2022/08/24 02:29:30;;;;;;;26.73;16.90;;;19.40;99.90;;;;;;5055810;28;20025;-79
2022/08/24 02:31:56;;;;;;;23.88;16.63;;;19.40;99.90;;;;;;5074009;28;20035;-78
2022/08/24 02:34:22;;;;;;;29.95;17.08;;;19.40;99.90;;;;;;5073966;28;20391;-78
2022/08/24 02:36:48;;;;;;;26.50;15.88;;;19.40;99.90;;;;;;5055520;28;20490;-79
2022/08/24 02:39:14;;;;;;;27.25;16.83;;;19.40;99.90;;;;;;5073507;28;20033;-79
2022/08/24 02:41:40;;;;;;;30.20;16.70;;;19.40;99.90;;;;;;5073841;28;20120;-77
2022/08/24 02:44:06;;;;;;;28.85;16.17;;;19.40;99.90;;;;;;5073539;28;20029;-78
2022/08/24 02:46:32;;;;;;;27.95;16.67;;;19.40;99.90;;;;;;5073384;28;20471;-79
2022/08/24 02:48:58;;;;;;;28.83;16.85;;;19.40;99.90;;;;;;5073614;28;20029;-80
2022/08/24 02:51:28;;;;;;;26.35;15.43;;;19.40;99.90;;;;;;5055627;28;20039;-76
2022/08/24 02:53:55;;;;;;;24.50;15.57;;;19.40;99.90;;;;;;5073588;28;20035;-79
2022/08/24 02:56:21;;;;;;;22.10;14.30;;;19.40;99.90;;;;;;5073063;28;20016;-79
2022/08/24 02:58:47;;;;;;;26.35;16.17;;;19.40;99.90;;;;;;5073680;28;20020;-79
2022/08/24 03:01:14;;;;;;;24.30;15.23;;;19.40;99.90;;;;;;5073436;28;20052;-80
2022/08/24 03:03:40;;;;;;;27.33;16.17;;;19.40;99.90;;;;;;5073154;28;20491;-79
2022/08/24 03:06:07;;;;;;;23.85;15.60;;;19.40;99.90;;;;;;5055616;28;20064;-78
2022/08/24 03:08:34;;;;;;;24.08;15.20;;;19.40;99.90;;;;;;5073755;28;20031;-79
2022/08/24 03:11:00;;;;;;;23.83;15.07;;;19.40;99.90;;;;;;5073075;28;20032;-80
2022/08/24 03:13:27;;;;;;;24.38;15.57;;;19.40;99.90;;;;;;5073562;28;20028;-77
2022/08/24 03:15:54;;;;;;;28.05;14.98;;;19.40;99.90;;;;;;5073364;28;20039;-77
2022/08/24 03:18:21;;;;;;;20.17;14.30;;;19.40;99.90;;;;;;5073661;28;20036;-78
2022/08/24 03:20:48;;;;;;;21.98;14.38;;;19.40;99.90;;;;;;5055337;28;20081;-79
2022/08/24 03:23:15;;;;;;;23.83;13.05;;;19.40;99.90;;;;;;5073350;28;20028;-77
2022/08/24 03:25:41;;;;;;;18.25;11.85;;;19.40;99.90;;;;;;5055324;28;20052;-77
2022/08/24 03:28:07;;;;;;;16.90;11.52;;;19.40;99.90;;;;;;5073039;28;20376;-78
2022/08/24 03:30:33;;;;;;;15.68;10.25;;;19.40;99.90;;;;;;5073335;28;20052;-79
2022/08/24 03:32:59;;;;;;;14.40;10.20;;;19.50;99.90;;;;;;5072920;28;20028;-79
2022/08/24 03:35:25;;;;;;;12.45;10.10;;;19.50;99.90;;;;;;5072786;28;20025;-78
2022/08/24 03:37:50;;;;;;;13.07;11.02;;;19.40;99.90;;;;;;5073465;28;20516;-81
2022/08/24 03:40:19;;;;;;;15.85;10.55;;;19.50;99.90;;;;;;5073403;28;20055;-79
2022/08/24 03:42:45;;;;;;;16.38;10.85;;;19.50;99.90;;;;;;5072778;28;20036;-79
2022/08/24 03:45:11;;;;;;;16.98;11.00;;;19.50;99.90;;;;;;5055041;28;20360;-80
2022/08/24 03:47:37;;;;;;;16.15;11.55;;;19.50;99.90;;;;;;5072948;28;20480;-78
2022/08/24 03:50:04;;;;;;;18.88;11.93;;;19.50;99.90;;;;;;5073090;28;20031;-78
2022/08/24 03:52:30;;;;;;;18.10;11.73;;;19.50;99.90;;;;;;5055013;28;20036;-77
2022/08/24 03:54:56;;;;;;;17.67;11.30;;;19.40;99.90;;;;;;5055167;28;20524;-79
2022/08/24 03:57:22;;;;;;;17.83;11.68;;;19.50;99.90;;;;;;5073212;28;20021;-81
2022/08/24 03:59:48;;;;;;;19.05;12.35;;;19.50;99.90;;;;;;5054885;28;20071;-79
2022/08/24 04:02:14;;;;;;;16.23;12.57;;;19.40;99.90;;;;;;5072967;28;20028;-77
2022/08/24 04:04:40;;;;;;;22.95;12.38;;;19.50;99.90;;;;;;5072998;28;20379;-78
2022/08/24 04:07:05;;;;;;;14.63;12.02;;;19.50;99.90;;;;;;5055068;28;20532;-79
2022/08/24 04:09:31;;;;;;;22.63;11.80;;;19.50;99.90;;;;;;5057932;28;20540;-77
2022/08/24 04:11:57;;;;;;;20.42;12.45;;;19.50;99.90;;;;;;5084294;28;20501;-78
2022/08/24 04:14:24;;;;;;;17.48;12.07;;;19.50;99.90;;;;;;5074942;28;20032;-78
2022/08/24 04:16:50;;;;;;;24.02;13.55;;;19.40;99.90;;;;;;5075459;28;20471;-77
2022/08/24 04:19:16;;;;;;;18.33;13.45;;;19.40;99.90;;;;;;5057142;28;20120;-78
2022/08/24 04:21:43;;;;;;;17.80;13.07;;;19.40;99.90;;;;;;5075712;28;20463;-78
2022/08/24 04:24:10;;;;;;;19.00;13.90;;;19.40;99.90;;;;;;5074628;28;20115;-81
2022/08/24 04:26:37;;;;;;;17.75;13.05;;;19.40;99.90;;;;;;5075766;28;20116;-77
2022/08/24 04:29:05;;;;;;;19.95;13.90;;;19.40;99.90;;;;;;5057590;28;20124;-77
2022/08/24 04:31:31;;;;;;;18.20;13.95;;;19.30;99.90;;;;;;5056517;28;20028;-78
2022/08/24 04:33:56;;;;;;;21.77;14.20;;;19.40;99.90;;;;;;5057739;28;20035;-78
2022/08/24 04:36:22;;;;;;;16.60;13.18;;;19.40;99.90;;;;;;5075138;28;20060;-78
2022/08/24 04:38:49;;;;;;;20.50;14.13;;;19.40;99.90;;;;;;5075503;28;20039;-78
2022/08/24 04:41:19;;;;;;;17.67;13.88;;;19.30;99.90;;;;;;5057127;28;20032;-77
2022/08/24 04:43:46;;;;;;;22.85;14.63;;;19.30;99.90;;;;;;5057466;28;20047;-79
2022/08/24 04:46:14;;;;;;;18.58;14.70;;;19.30;99.90;;;;;;5074760;28;20035;-79
2022/08/24 04:48:43;;;;;;;21.92;15.35;;;19.30;99.90;;;;;;5057586;28;20044;-78
2022/08/24 04:51:11;;;;;;;20.23;14.15;;;19.30;99.90;;;;;;5075873;28;20064;-78
2022/08/24 04:53:38;;;;;;;21.15;13.75;;;19.40;99.90;;;;;;5075188;28;20501;-79
2022/08/24 04:56:10;;;;;;;19.85;13.60;;;19.30;99.90;;;;;;5074684;28;20029;-78
2022/08/24 04:58:36;;;;;;;20.55;14.05;;;19.30;99.90;;;;;;5057543;28;20451;-77
2022/08/24 05:01:11;;;;;;;22.35;14.60;;;19.30;99.90;;;;;;5075747;28;20028;-77
2022/08/24 05:03:37;;;;;;;17.88;14.02;;;19.40;99.90;;;;;;5075038;28;20375;-79
2022/08/24 05:06:04;;;;;;;22.20;14.02;;;19.30;99.90;;;;;;5075402;28;20035;-78
2022/08/24 05:08:30;;;;;;;20.17;14.90;;;19.40;99.90;;;;;;5075480;28;20116;-76
2022/08/24 05:10:56;;;;;;;19.85;13.77;;;19.40;99.90;;;;;;5075213;28;20028;-79
2022/08/24 05:13:22;;;;;;;22.00;14.10;;;19.30;99.90;;;;;;5075304;28;20222;-78
2022/08/24 05:15:48;;;;;;;18.50;13.70;;;19.30;99.90;;;;;;5075158;28;20028;-79
2022/08/24 05:18:15;;;;;;;20.05;15.68;;;19.30;99.90;;;;;;5075115;28;20048;-80
2022/08/24 05:20:44;;;;;;;22.40;15.00;;;19.30;99.90;;;;;;5074008;28;20197;-81
2022/08/24 05:23:11;;;;;;;17.10;13.98;;;19.40;99.90;;;;;;5073101;28;20028;-80
2022/08/24 05:25:38;;;;;;;18.88;14.98;;;19.40;99.90;;;;;;5074557;28;20455;-80
2022/08/24 05:28:05;;;;;;;19.80;14.85;;;19.40;99.90;;;;;;5074582;28;20116;-80
2022/08/24 05:30:31;;;;;;;21.58;14.88;;;19.40;99.90;;;;;;5056884;28;20024;-80
2022/08/24 05:32:57;;;;;;;19.65;14.40;;;19.40;99.90;;;;;;5074848;28;20020;-80
2022/08/24 05:35:23;;;;;;;19.15;15.02;;;19.40;99.90;;;;;;5074973;28;20100;-81
2022/08/24 05:37:49;;;;;;;20.42;14.68;;;19.40;99.90;;;;;;5073389;28;20536;-79
2022/08/24 05:40:17;;;;;;;22.27;14.32;;;19.40;99.90;;;;;;5055921;28;20521;-80
2022/08/24 05:42:43;;;;;;;21.05;15.00;;;19.30;99.90;;;;;;5074073;28;20089;-80
2022/08/24 05:45:11;;;;;;;22.52;15.15;;;19.30;99.90;;;;;;5056388;28;20031;-81
2022/08/24 05:47:37;;;;;;;23.52;14.98;;;19.40;99.90;;;;;;5056341;28;20025;-81
2022/08/24 05:50:05;;;;;;;21.10;15.63;;;19.40;99.90;;;;;;5074655;28;20036;-80
2022/08/24 05:52:31;;;;;;;19.90;14.75;;;19.40;99.90;;;;;;5055292;28;20028;-80
2022/08/24 05:54:58;;;;;;;23.08;15.55;;;19.40;99.90;;;;;;5073095;28;20025;-81
2022/08/24 05:57:25;;;;;;;23.30;14.40;;;19.40;99.90;;;;;;5056644;28;20033;-80
2022/08/24 05:59:52;;;;;;;22.95;15.35;;;19.40;99.90;;;;;;5073943;28;20533;-82
2022/08/24 06:02:18;;;;;;;22.35;14.57;;;19.40;99.90;;;;;;5056479;28;20097;-81
2022/08/24 06:04:45;;;;;;;21.48;14.85;;;19.40;99.90;;;;;;5074402;28;20040;-82
2022/08/24 06:07:12;;;;;;;21.73;14.55;;;19.30;99.90;;;;;;5056232;28;20047;-81
2022/08/24 06:09:39;;;;;;;18.83;14.40;;;19.40;99.90;;;;;;5073919;28;20028;-81
2022/08/24 06:12:06;;;;;;;21.58;14.07;;;19.40;99.90;;;;;;5056127;28;20048;-81
2022/08/24 06:14:35;;;;;;;18.02;14.57;;;19.40;99.90;;;;;;5073820;28;20046;-82
2022/08/24 06:17:03;;;;;;;19.88;14.93;;;19.40;99.90;;;;;;5074343;28;20129;-80
2022/08/24 06:19:29;;;;;;;19.42;14.40;;;19.30;99.90;;;;;;5073972;28;20031;-81
2022/08/24 06:21:55;;;;;;;21.38;14.48;;;19.40;99.90;;;;;;5073831;28;20107;-80
2022/08/24 06:27:19;;;;;;;20.75;14.10;;;19.40;99.90;;;;;;5073742;28;20032;-80
2022/08/24 06:27:20;;;;;;;19.75;13.55;;;19.40;99.90;;;;;;5073358;28;20025;-82
2022/08/24 06:30:04;;;;;;;18.23;13.30;;;19.40;99.90;;;;;;5056011;28;20046;-80
2022/08/24 06:32:29;;;;;;;18.13;13.73;;;19.40;99.90;;;;;;5073140;28;20029;-80
2022/08/24 06:34:57;;;;;;;17.95;12.63;;;19.40;99.90;;;;;;5055744;28;20582;-79
2022/08/24 06:37:25;;;;;;;18.77;13.00;;;19.40;99.90;;;;;;5055051;28;20093;-80
2022/08/24 06:39:53;;;;;;;23.15;14.35;;;19.40;99.90;;;;;;5073739;28;20036;-80
2022/08/24 06:42:19;;;;;;;16.73;13.13;;;19.40;99.90;;;;;;5073434;28;20025;-80
2022/08/24 06:44:45;;;;;;;17.15;13.13;;;19.40;99.90;;;;;;5073472;28;20043;-80
2022/08/24 06:47:11;;;;;;;21.35;13.45;;;19.40;99.90;;;;;;5073573;28;20025;-83
2022/08/24 06:49:37;;;;;;;18.77;13.27;;;19.40;99.90;;;;;;5055532;28;20471;-81
2022/08/24 06:52:06;;;;;;;17.80;13.82;;;19.40;99.90;;;;;;5055224;28;20040;-81
2022/08/24 06:54:32;;;;;;;16.92;13.13;;;19.40;99.90;;;;;;5072745;28;20116;-80
2022/08/24 06:56:58;;;;;;;18.48;13.63;;;19.40;99.90;;;;;;5055223;28;20028;-80
2022/08/24 06:59:27;;;;;;;18.98;13.48;;;19.40;99.90;;;;;;5073761;28;20035;-82
2022/08/24 07:01:55;;;;;;;17.80;13.70;;;19.50;99.90;;;;;;5055349;28;20115;-82
2022/08/24 07:04:23;;;;;;;17.63;13.73;;;19.50;99.90;;;;;;5073414;28;20021;-82
2022/08/24 07:06:50;;;;;;;19.58;14.45;;;19.60;99.90;;;;;;5073485;28;20056;-81
2022/08/24 07:09:16;;;;;;;18.85;14.35;;;19.60;99.90;;;;;;5073326;28;20024;-80
2022/08/24 07:11:42;;;;;;;18.55;14.57;;;19.70;99.90;;;;;;5073055;28;20024;-82
2022/08/24 07:14:08;;;;;;;20.73;14.82;;;19.70;99.90;;;;;;5055475;28;20028;-81
2022/08/24 07:16:34;;;;;;;21.60;16.23;;;19.70;99.90;;;;;;5072939;28;20028;-80
2022/08/24 07:19:02;;;;;;;19.90;15.35;;;19.80;99.90;;;;;;5073722;28;20032;-82
2022/08/24 07:21:27;;;;;;;21.17;15.10;;;19.80;99.90;;;;;;5073622;28;20066;-82
2022/08/24 07:23:55;;;;;;;16.75;12.85;;;19.90;99.90;;;;;;5072859;28;20032;-81
2022/08/24 07:26:24;;;;;;;16.40;13.10;;;19.90;99.90;;;;;;5073368;28;20036;-82
2022/08/24 07:29:03;;;;;;;17.13;13.70;;;20.00;99.90;;;;;;5072498;28;20082;-82
2022/08/24 07:31:30;;;;;;;22.45;12.95;;;20.00;99.90;;;;;;5072953;28;20048;-81
2022/08/24 07:33:55;;;;;;;17.27;14.43;;;20.10;99.90;;;;;;5073178;28;20036;-82
2022/08/24 07:36:21;;;;;;;19.83;16.02;;;20.00;99.90;;;;;;5051388;28;20049;-80
2022/08/24 07:38:47;;;;;;;22.38;14.13;;;20.10;99.90;;;;;;5053252;28;20035;-80
2022/08/24 07:41:13;;;;;;;21.67;15.32;;;20.10;99.90;;;;;;5053270;28;20349;-81
2022/08/24 07:43:40;;;;;;;21.35;14.70;;;20.10;99.90;;;;;;5055943;28;20349;-81
2022/08/24 07:46:06;;;;;;;20.08;14.13;;;20.20;99.90;;;;;;5055652;28;20029;-80
2022/08/24 07:48:33;;;;;;;17.42;13.25;;;20.30;99.90;;;;;;5056896;28;20052;-81
2022/08/24 07:51:14;;;;;;;19.85;14.65;;;20.30;99.90;;;;;;5056608;28;20107;-83
2022/08/24 07:53:40;;;;;;;20.45;12.88;;;20.30;99.90;;;;;;5055494;28;20029;-80
2022/08/24 07:56:06;;;;;;;18.17;13.85;;;20.30;99.90;;;;;;5054919;28;20060;-81
2022/08/24 07:58:32;;;;;;;17.42;13.57;;;20.30;99.90;;;;;;5056281;28;20028;-80
2022/08/24 08:00:58;;;;;;;21.10;14.05;;;20.40;99.90;;;;;;5056423;28;20025;-81
2022/08/24 08:03:26;;;;;;;20.92;14.90;;;20.30;99.90;;;;;;5055379;28;20037;-81
2022/08/24 08:05:56;;;;;;;17.48;14.55;;;20.40;99.90;;;;;;5056309;28;20025;-80
2022/08/24 08:08:23;;;;;;;22.48;14.40;;;20.30;99.90;;;;;;5056225;28;20028;-81
2022/08/24 08:10:49;;;;;;;19.60;13.73;;;20.40;99.90;;;;;;5055859;28;20021;-80
2022/08/24 08:13:15;;;;;;;22.00;14.57;;;20.30;99.90;;;;;;5055093;28;20451;-81
2022/08/24 08:15:41;;;;;;;22.73;14.32;;;20.30;99.90;;;;;;5056409;28;20478;-81
2022/08/24 08:18:07;;;;;;;21.65;14.93;;;20.30;99.90;;;;;;5056193;28;20024;-79
2022/08/24 08:20:33;;;;;;;24.48;14.57;;;20.30;99.90;;;;;;5056149;28;20031;-80
2022/08/24 08:25:48;;;;;;;19.63;14.70;;;20.40;99.90;;;;;;5055876;28;20555;-81
2022/08/24 08:28:14;;;;;;;23.65;15.73;;;20.50;99.90;;;;;;5056553;28;20447;-81
2022/08/24 08:30:40;;;;;;;23.50;14.63;;;20.40;99.90;;;;;;5056379;28;20037;-81
2022/08/24 08:33:07;;;;;;;23.50;15.10;;;20.50;99.90;;;;;;5054661;28;20060;-79
2022/08/24 08:35:33;;;;;;;20.88;15.75;;;20.50;99.90;;;;;;5054566;28;20055;-80
2022/08/24 08:37:59;;;;;;;19.08;14.43;;;20.40;99.90;;;;;;5056146;28;20025;-81
2022/08/24 08:40:43;;;;;;;23.35;15.90;;;20.50;99.90;;;;;;5054597;28;20107;-80
2022/08/24 08:43:15;;;;;;;21.52;15.80;;;20.50;99.90;;;;;;5056167;28;20112;-80
2022/08/24 08:45:46;;;;;;;;;;;20.50;99.90;;;;;;5056136;28;20025;-80
2022/08/24 08:48:30;;;;;;;20.80;15.45;;;20.50;99.90;;;;;;5055735;28;19911;-81
2022/08/24 08:51:35;;;;;;;24.95;14.40;;;20.50;99.90;;;;;;5054582;28;20025;-80
2022/08/24 08:54:04;;;;;;;23.70;15.15;;;20.50;99.90;;;;;;5053707;28;20033;-82
2022/08/24 08:56:48;;;;;;;21.23;14.85;;;20.50;99.90;;;;;;5054267;28;20021;-83
2022/08/24 09:00:06;;;;;;;22.38;16.48;;;20.50;99.90;;;;;;5055739;28;20075;-81
2022/08/24 09:02:56;;;;;;;21.15;15.48;;;20.50;99.90;;;;;;4974461;28;20039;-80
2022/08/24 09:05:51;;;;;;;21.77;15.23;;;20.50;99.90;;;;;;4958385;28;20509;-82
2022/08/24 09:08:27;;;;;;;20.95;15.15;;;20.60;99.90;;;;;;4974346;28;20054;-82
2022/08/24 09:11:20;;;;;;;19.63;15.00;;;20.60;99.90;;;;;;4974353;28;20474;-83
2022/08/24 09:14:16;;;;;;;22.13;15.20;;;20.60;99.90;;;;;;4974484;28;20031;-82
2022/08/24 09:17:02;;;;;;;29.35;14.48;;;;;;;;;;4974379;28;20135;-81
2022/08/24 09:19:54;;;;;;;18.23;13.93;;;20.80;99.90;;;;;;4974237;28;20042;-82
2022/08/24 09:22:21;;;;;;;20.90;15.13;;;20.80;99.90;;;;;;4974189;28;20041;-83
2022/08/24 09:24:52;;;;;;;20.52;14.25;;;20.80;99.90;;;;;;4957769;28;20109;-81
2022/08/24 09:27:36;;;;;;;;;;;20.80;99.90;;;;;;4974613;28;20505;-81
2022/08/24 09:30:17;;;;;;;17.98;14.35;;;;;;;;;;4973722;28;19906;-81
2022/08/24 09:32:43;;;;;;;22.48;18.35;;;;;;;;;;4973962;28;20093;-80
2022/08/24 09:35:17;;;;;;;13.82;12.18;;;;;;;;;;4973579;28;20027;-79
2022/08/24 09:37:47;;;;;;;12.27;10.80;;;;;;;;;;5011538;28;20037;-80
2022/08/24 09:40:31;;;;;;;17.85;12.07;;;;;;;;;;5054642;28;20024;-83
2022/08/24 09:43:06;;;;;;;12.30;10.00;;;;;;;;;;5054632;28;20025;-82
2022/08/24 09:45:48;;;;;;;13.32;9.45;;;;;;;;;;5054709;28;20053;-80
2022/08/24 09:48:14;;;;;;;13.50;10.07;;;;;;;;;;5054803;28;20029;-81
2022/08/24 09:51:00;;;;;;;14.75;9.85;;;;;;;;;;5054254;28;20029;-81
2022/08/24 09:53:32;;;;;;;13.00;10.05;;;;;;;;;;5053341;28;20055;-79
2022/08/24 09:56:13;;;;;;;14.68;9.82;;;;;;;;;;5054668;28;20021;-79
2022/08/24 09:58:49;;;;;;;18.30;10.85;;;;;;;;;;5054623;28;20101;-80
2022/08/24 10:01:27;;;;;;;12.55;9.57;;;;;;;;;;5054569;28;20501;-80
2022/08/24 10:04:07;;;;;;;16.75;11.13;;;;;;;;;;5054297;28;20033;-81
2022/08/24 10:06:41;;;;;;;13.70;10.25;;;;;;;;;;5052149;28;20056;-81
2022/08/24 10:09:20;;;;;;;13.63;11.02;;;;;;;;;;5054630;28;20025;-80
2022/08/24 10:11:49;;;;;;;15.52;9.98;;;;;;;;;;5054212;28;20024;-81
2022/08/24 10:14:30;;;;;;;14.02;9.80;;;;;;;;;;5052926;28;20028;-83
2022/08/24 10:17:06;;;;;;;15.07;10.43;;;;;;;;;;5053968;28;20028;-84
2022/08/24 10:19:38;;;;;;;16.70;10.85;;;;;;;;;;5052913;28;20208;-81
2022/08/24 10:22:07;;;;;;;14.93;10.93;;;;;;;;;;5052458;28;20021;-81
2022/08/24 10:24:47;;;;;;;13.82;12.00;;;;;;;;;;5051769;28;20020;-82
2022/08/24 10:27:20;;;;;;;13.73;11.43;;;;;;;;;;5052873;28;20498;-82
2022/08/24 10:30:05;;;;;;;14.60;10.82;;;;;;;;;;5054221;28;20109;-83
2022/08/24 10:32:49;;;;;;;18.08;10.90;;;;;;;;;;5053849;28;20028;-81
2022/08/24 10:35:22;;;;;;;16.67;11.00;;;;;;;;;;5054821;28;20522;-82
2022/08/24 10:41:00;;;;;;;12.80;9.90;;;;;;;;;;5072723;28;20042;-80
2022/08/24 10:43:45;;;;;;;12.27;9.02;;;;;;;;;;5072396;28;20036;-82
2022/08/24 10:46:29;;;;;;;12.82;8.88;;;;;;;;;;5073326;28;20530;-82
2022/08/24 10:49:07;;;;;;;12.27;9.82;;;;;;;;;;5072971;28;20031;-83
2022/08/24 10:51:39;;;;;;;11.25;8.90;;;;;;;;;;5073111;28;20025;-83
2022/08/24 10:54:05;;;;;;;12.52;9.90;;;;;;;;;;5073266;28;20024;-81
2022/08/24 10:56:31;;;;;;;11.85;7.68;;;;;;;;;;5073691;28;20059;-82
2022/08/24 10:59:14;;;;;;;10.35;8.77;;;;;;;;;;5055724;28;20030;-82
2022/08/24 11:01:58;;;;;;;10.65;7.55;;;;;;;;;;5073774;28;20473;-83
2022/08/24 11:04:29;;;;;;;13.80;7.95;;;;;;;;;;5055663;28;20021;-81
2022/08/24 11:07:07;;;;;;;11.57;8.25;;;;;;;;;;5055454;28;20082;-83
2022/08/24 11:10:05;;;;;;;13.80;8.77;;;;;;;;;;5073289;28;20020;-83
2022/08/24 11:12:42;;;;;;;12.80;7.90;;;;;;;;;;4972527;28;20043;-82
2022/08/24 11:15:17;;;;;;;12.45;8.43;;;;;;;;;;4972453;28;20094;-80
2022/08/24 11:17:57;;;;;;;8.95;7.80;;;;;;;;;;4974494;28;20062;-81
2022/08/24 11:20:55;;;;;;;8.15;6.93;;;;;;;;;;4976161;28;20465;-80
2022/08/24 11:23:23;;;;;;;11.95;7.50;;;;;;;;;;4956943;29;20184;-81
2022/08/24 11:25:55;;;;;;;11.07;7.68;;;;;;;;;;4956782;29;20608;-80
2022/08/24 11:28:33;;;;;;;9.50;7.80;;;;;;;;;;4956935;29;20103;-81
2022/08/24 11:31:00;;;;;;;9.05;7.50;;;;;;;;;;4940668;29;20037;-81
2022/08/24 11:33:28;;;;;;;10.13;7.22;;;;;;;;;;4940775;29;20039;-81
2022/08/24 11:35:55;;;;;;;10.60;7.22;;;;;;;;;;4956501;29;20066;-83
2022/08/24 11:38:24;;;;;;;12.05;7.55;;;;;;;;;;4955016;29;20058;-80
2022/08/24 11:41:13;;;;;;;10.75;7.82;;;;;;;;;;4956485;29;20031;-81
2022/08/24 11:43:57;;;;;;;8.15;7.10;;;;;;;;;;4948744;28;20043;-81
2022/08/24 11:46:41;;;;;;;9.45;6.90;;;;;;;;;;4944319;29;20147;-82
2022/08/24 11:49:26;;;;;;;10.38;7.25;;;;;;;;;;5028686;28;20393;-80
2022/08/24 11:51:56;;;;;;;10.70;7.55;;;;;;;;;;5017747;28;20124;-78
2022/08/24 11:54:41;;;;;;;9.07;8.00;;;;;;;;;;5018126;28;20523;-79
2022/08/24 11:57:08;;;;;;;9.13;7.38;;;;;;;;;;5034499;28;20025;-82
2022/08/24 11:59:49;;;;;;;11.98;7.63;;;;;;;;;;5066634;28;20068;-78
2022/08/24 12:02:24;;;;;;;7.95;7.13;;;;;;;;;;5076677;28;20020;-78
2022/08/24 12:05:26;;;;;;;9.00;7.43;;;;;;;;;;5058716;28;20048;-79
2022/08/24 12:07:55;;;;;;;17.30;10.38;;;;;;;;;;5042011;28;20032;-82
2022/08/24 12:10:40;;;;;;;18.77;10.93;;;;;;;;;;5076498;28;20043;-80
2022/08/24 12:13:12;;;;;;;11.93;8.35;;;;;;;;;;5076050;28;20029;-80
2022/08/24 12:15:50;;;;;;;14.60;9.65;;;;;;;;;;5076515;28;20044;-82
2022/08/24 12:18:23;;;;;;;44.40;21.38;;;;;;;;;;5058354;28;20024;-79
2022/08/24 12:20:50;;;;;;;19.50;12.00;;;;;;;;;;5076081;28;20025;-80
2022/08/24 12:23:22;;;;;;;17.77;10.27;;;;;;;;;;5058383;28;20115;-78
2022/08/24 12:26:02;;;;;;;11.93;8.75;;;;;;;;;;5058270;28;20081;-77
2022/08/24 12:28:40;;;;;;;13.13;8.65;;;;;;;;;;5075284;28;20017;-78
2022/08/24 12:31:26;;;;;;;9.38;8.35;;;;;;;;;;5058269;28;20028;-79
2022/08/24 12:33:54;;;;;;;9.75;8.65;;;;;;;;;;5075889;28;20035;-79
2022/08/24 12:36:40;;;;;;;11.13;7.82;;;;;;;;;;5057939;28;20048;-79
2022/08/24 12:39:12;;;;;;;19.98;12.50;;;;;;;;;;5059842;28;20050;-80
2022/08/24 12:42:01;;;;;;;10.73;8.77;;;;;;;;;;5056469;28;20029;-79
2022/08/24 12:44:37;;;;;;;9.88;8.05;;;;;;;;;;5074794;28;20024;-79
2022/08/24 12:47:04;;;;;;;11.13;7.50;;;;;;;;;;5057425;28;20123;-82
2022/08/24 12:49:35;;;;;;;9.13;7.85;;;;;;;;;;5075932;28;20028;-80
2022/08/24 12:52:04;;;;;;;9.63;8.07;;;;;;;;;;5075583;28;20073;-83
2022/08/24 12:54:41;;;;;;;13.60;9.00;;;;;;;;;;5075880;28;20028;-82
2022/08/24 12:57:30;;;;;;;12.98;9.80;;;;;;;;;;5075546;28;20375;-81
2022/08/24 12:59:58;;;;;;;11.43;8.32;;;;;;;;;;5057748;28;20031;-83
2022/08/24 13:02:32;;;;;;;8.13;6.50;;;;;;;;;;5074673;28;20455;-80
2022/08/24 13:05:02;;;;;;;7.63;6.80;;;;;;;;;;5057637;28;20383;-81
2022/08/24 13:07:39;;;;;;;13.93;7.72;;;;;;;;;;5075395;28;20455;-80
2022/08/24 13:10:05;;;;;;;12.98;7.80;;;;;;;;;;5057411;28;20025;-81
2022/08/24 13:12:40;;;;;;;23.23;12.48;;;;;;;;;;5057091;28;20360;-78
2022/08/24 13:15:19;;;;;;;21.98;12.25;;;;;;;;;;5075490;28;20090;-81
2022/08/24 13:17:45;;;;;;;8.38;6.78;;;;;;;;;;5073969;28;20023;-81
2022/08/24 13:20:18;;;;;;;15.02;9.40;;;;;;;;;;5074463;28;20036;-82
2022/08/24 13:22:48;;;;;;;11.07;8.02;;;;;;;;;;5075240;28;20409;-79
2022/08/24 13:25:21;;;;;;;16.90;8.65;;;;;;;;;;5074787;28;20025;-82
2022/08/24 13:27:49;;;;;;;13.57;7.15;;;;;;;;;;5057089;28;20428;-78
2022/08/24 13:30:21;;;;;;;9.48;6.93;;;;;;;;;;5074406;28;20459;-80